sensor_id;sensor_type;location;lat;lon;timestamp;temperature;humidity
42037;DHT22;30340;52.004;5.908;2022-11-15T00:01:23;9.20;85.00
42037;DHT22;30340;52.004;5.908;2022-11-15T00:03:52;9.20;85.10
42037;DHT22;30340;52.004;5.908;2022-11-15T00:06:18;9.20;85.30
42037;DHT22;30340;52.004;5.908;2022-11-15T00:08:43;9.20;85.30
42037;DHT22;30340;52.004;5.908;2022-11-15T00:11:11;9.20;85.40
42037;DHT22;30340;52.004;5.908;2022-11-15T00:13:37;9.20;85.60
42037;DHT22;30340;52.004;5.908;2022-11-15T00:16:03;9.20;85.60
42037;DHT22;30340;52.004;5.908;2022-11-15T00:18:29;9.30;85.60
42037;DHT22;30340;52.004;5.908;2022-11-15T00:20:55;9.30;85.70
42037;DHT22;30340;52.004;5.908;2022-11-15T00:23:21;9.20;85.90
42037;DHT22;30340;52.004;5.908;2022-11-15T00:25:47;9.20;86.50
42037;DHT22;30340;52.004;5.908;2022-11-15T00:28:20;9.10;86.80
42037;DHT22;30340;52.004;5.908;2022-11-15T00:30:45;9.20;87.00
42037;DHT22;30340;52.004;5.908;2022-11-15T00:33:11;9.20;87.10
42037;DHT22;30340;52.004;5.908;2022-11-15T00:35:36;9.20;87.20
42037;DHT22;30340;52.004;5.908;2022-11-15T00:38:02;9.20;87.50
42037;DHT22;30340;52.004;5.908;2022-11-15T00:40:28;9.10;87.60
42037;DHT22;30340;52.004;5.908;2022-11-15T00:42:54;9.20;87.80
42037;DHT22;30340;52.004;5.908;2022-11-15T00:45:19;9.20;87.80
42037;DHT22;30340;52.004;5.908;2022-11-15T00:47:46;9.30;87.70
42037;DHT22;30340;52.004;5.908;2022-11-15T00:50:12;9.20;87.50
42037;DHT22;30340;52.004;5.908;2022-11-15T00:52:37;9.30;87.50
42037;DHT22;30340;52.004;5.908;2022-11-15T00:55:03;9.30;87.50
42037;DHT22;30340;52.004;5.908;2022-11-15T00:57:29;9.30;87.50
42037;DHT22;30340;52.004;5.908;2022-11-15T00:59:55;9.40;87.40
42037;DHT22;30340;52.004;5.908;2022-11-15T01:02:20;9.30;87.40
42037;DHT22;30340;52.004;5.908;2022-11-15T01:04:46;9.30;87.60
42037;DHT22;30340;52.004;5.908;2022-11-15T01:07:11;9.30;88.00
42037;DHT22;30340;52.004;5.908;2022-11-15T01:09:37;9.30;88.00
42037;DHT22;30340;52.004;5.908;2022-11-15T01:12:03;9.30;88.20
42037;DHT22;30340;52.004;5.908;2022-11-15T01:14:29;9.30;88.10
42037;DHT22;30340;52.004;5.908;2022-11-15T01:16:54;9.40;88.20
42037;DHT22;30340;52.004;5.908;2022-11-15T01:19:20;9.40;88.20
42037;DHT22;30340;52.004;5.908;2022-11-15T01:21:48;9.40;88.10
42037;DHT22;30340;52.004;5.908;2022-11-15T01:24:14;9.40;88.20
42037;DHT22;30340;52.004;5.908;2022-11-15T01:26:40;9.50;88.10
42037;DHT22;30340;52.004;5.908;2022-11-15T01:29:05;9.50;88.00
42037;DHT22;30340;52.004;5.908;2022-11-15T01:31:31;9.60;87.90
42037;DHT22;30340;52.004;5.908;2022-11-15T01:33:56;9.60;87.80
42037;DHT22;30340;52.004;5.908;2022-11-15T01:36:22;9.60;87.90
42037;DHT22;30340;52.004;5.908;2022-11-15T01:38:55;9.60;87.90
42037;DHT22;30340;52.004;5.908;2022-11-15T01:41:24;9.70;87.90
42037;DHT22;30340;52.004;5.908;2022-11-15T01:43:53;9.70;87.90
42037;DHT22;30340;52.004;5.908;2022-11-15T01:46:39;9.70;87.90
42037;DHT22;30340;52.004;5.908;2022-11-15T01:49:15;9.70;87.80
42037;DHT22;30340;52.004;5.908;2022-11-15T01:51:42;9.80;87.80
42037;DHT22;30340;52.004;5.908;2022-11-15T01:54:14;9.80;87.80
42037;DHT22;30340;52.004;5.908;2022-11-15T01:56:45;9.80;87.70
42037;DHT22;30340;52.004;5.908;2022-11-15T01:59:13;9.90;87.60
42037;DHT22;30340;52.004;5.908;2022-11-15T02:01:39;9.90;87.40
42037;DHT22;30340;52.004;5.908;2022-11-15T02:04:16;10.00;87.40
42037;DHT22;30340;52.004;5.908;2022-11-15T02:06:44;10.00;87.40
42037;DHT22;30340;52.004;5.908;2022-11-15T02:09:12;10.00;87.30
42037;DHT22;30340;52.004;5.908;2022-11-15T02:11:38;10.00;87.30
42037;DHT22;30340;52.004;5.908;2022-11-15T02:14:04;10.00;87.30
42037;DHT22;30340;52.004;5.908;2022-11-15T02:28:01;10.20;87.30
42037;DHT22;30340;52.004;5.908;2022-11-15T02:30:43;10.20;87.20
42037;DHT22;30340;52.004;5.908;2022-11-15T02:33:36;10.20;87.70
42037;DHT22;30340;52.004;5.908;2022-11-15T02:36:15;10.20;87.30
42037;DHT22;30340;52.004;5.908;2022-11-15T02:38:58;10.20;87.40
42037;DHT22;30340;52.004;5.908;2022-11-15T02:41:40;10.20;87.40
42037;DHT22;30340;52.004;5.908;2022-11-15T02:44:32;10.20;87.40
42037;DHT22;30340;52.004;5.908;2022-11-15T02:47:03;10.30;87.60
42037;DHT22;30340;52.004;5.908;2022-11-15T02:49:41;10.20;87.60
42037;DHT22;30340;52.004;5.908;2022-11-15T02:52:09;10.20;87.80
42037;DHT22;30340;52.004;5.908;2022-11-15T02:54:34;10.30;88.00
42037;DHT22;30340;52.004;5.908;2022-11-15T02:57:12;10.30;88.00
42037;DHT22;30340;52.004;5.908;2022-11-15T03:00:09;10.30;88.00
42037;DHT22;30340;52.004;5.908;2022-11-15T03:05:25;10.40;87.90
42037;DHT22;30340;52.004;5.908;2022-11-15T03:13:17;10.40;88.00
42037;DHT22;30340;52.004;5.908;2022-11-15T03:15:57;10.40;88.30
42037;DHT22;30340;52.004;5.908;2022-11-15T03:18:29;10.50;88.30
42037;DHT22;30340;52.004;5.908;2022-11-15T03:21:00;10.50;87.90
42037;DHT22;30340;52.004;5.908;2022-11-15T03:23:29;10.60;88.00
42037;DHT22;30340;52.004;5.908;2022-11-15T03:25:56;10.60;87.90
42037;DHT22;30340;52.004;5.908;2022-11-15T03:28:41;10.70;87.90
42037;DHT22;30340;52.004;5.908;2022-11-15T03:31:10;10.70;87.90
42037;DHT22;30340;52.004;5.908;2022-11-15T03:33:56;10.70;87.80
42037;DHT22;30340;52.004;5.908;2022-11-15T03:36:23;10.70;87.80
42037;DHT22;30340;52.004;5.908;2022-11-15T03:38:55;10.70;87.80
42037;DHT22;30340;52.004;5.908;2022-11-15T03:41:29;10.80;87.80
42037;DHT22;30340;52.004;5.908;2022-11-15T03:47:17;10.90;87.70
42037;DHT22;30340;52.004;5.908;2022-11-15T03:49:53;11.00;87.60
42037;DHT22;30340;52.004;5.908;2022-11-15T03:52:21;11.00;87.50
42037;DHT22;30340;52.004;5.908;2022-11-15T03:54:55;11.10;87.50
42037;DHT22;30340;52.004;5.908;2022-11-15T03:57:21;11.10;87.50
42037;DHT22;30340;52.004;5.908;2022-11-15T03:59:46;11.10;87.60
42037;DHT22;30340;52.004;5.908;2022-11-15T04:02:12;11.10;87.70
42037;DHT22;30340;52.004;5.908;2022-11-15T04:04:38;11.10;87.80
42037;DHT22;30340;52.004;5.908;2022-11-15T04:07:04;11.20;87.70
42037;DHT22;30340;52.004;5.908;2022-11-15T04:09:29;11.20;87.80
42037;DHT22;30340;52.004;5.908;2022-11-15T04:11:55;11.20;88.00
42037;DHT22;30340;52.004;5.908;2022-11-15T04:14:20;11.20;88.10
42037;DHT22;30340;52.004;5.908;2022-11-15T04:16:46;11.30;88.90
42037;DHT22;30340;52.004;5.908;2022-11-15T04:19:11;11.30;88.60
42037;DHT22;30340;52.004;5.908;2022-11-15T04:21:55;11.30;88.60
42037;DHT22;30340;52.004;5.908;2022-11-15T04:24:39;11.40;88.90
42037;DHT22;30340;52.004;5.908;2022-11-15T04:27:05;11.40;89.20
42037;DHT22;30340;52.004;5.908;2022-11-15T04:29:30;11.40;89.40
42037;DHT22;30340;52.004;5.908;2022-11-15T04:32:04;11.40;89.50
42037;DHT22;30340;52.004;5.908;2022-11-15T04:34:30;11.50;89.50
42037;DHT22;30340;52.004;5.908;2022-11-15T04:36:55;11.50;89.60
42037;DHT22;30340;52.004;5.908;2022-11-15T04:39:42;11.50;89.70
42037;DHT22;30340;52.004;5.908;2022-11-15T04:42:08;11.60;89.70
42037;DHT22;30340;52.004;5.908;2022-11-15T04:44:34;11.60;89.80
42037;DHT22;30340;52.004;5.908;2022-11-15T04:46:59;11.60;89.70
42037;DHT22;30340;52.004;5.908;2022-11-15T04:49:25;11.70;89.70
42037;DHT22;30340;52.004;5.908;2022-11-15T04:51:51;11.70;89.60
42037;DHT22;30340;52.004;5.908;2022-11-15T04:54:16;11.70;89.50
42037;DHT22;30340;52.004;5.908;2022-11-15T04:56:42;11.80;89.50
42037;DHT22;30340;52.004;5.908;2022-11-15T04:59:08;11.80;89.50
42037;DHT22;30340;52.004;5.908;2022-11-15T05:01:33;11.80;89.50
42037;DHT22;30340;52.004;5.908;2022-11-15T05:03:59;11.90;89.50
42037;DHT22;30340;52.004;5.908;2022-11-15T05:06:43;11.90;89.70
42037;DHT22;30340;52.004;5.908;2022-11-15T05:09:08;11.90;89.80
42037;DHT22;30340;52.004;5.908;2022-11-15T05:11:34;11.90;90.00
42037;DHT22;30340;52.004;5.908;2022-11-15T05:13:59;11.90;90.00
42037;DHT22;30340;52.004;5.908;2022-11-15T05:16:25;12.00;90.00
42037;DHT22;30340;52.004;5.908;2022-11-15T05:18:54;11.90;90.00
42037;DHT22;30340;52.004;5.908;2022-11-15T05:21:20;12.00;90.10
42037;DHT22;30340;52.004;5.908;2022-11-15T05:23:46;12.00;90.10
42037;DHT22;30340;52.004;5.908;2022-11-15T05:26:13;12.00;90.10
42037;DHT22;30340;52.004;5.908;2022-11-15T05:28:40;12.00;90.10
42037;DHT22;30340;52.004;5.908;2022-11-15T05:31:11;12.00;90.10
42037;DHT22;30340;52.004;5.908;2022-11-15T05:33:41;12.00;90.20
42037;DHT22;30340;52.004;5.908;2022-11-15T05:36:21;12.00;90.30
42037;DHT22;30340;52.004;5.908;2022-11-15T05:38:49;12.00;90.30
42037;DHT22;30340;52.004;5.908;2022-11-15T05:41:17;12.00;90.20
42037;DHT22;30340;52.004;5.908;2022-11-15T05:43:44;12.10;90.20
42037;DHT22;30340;52.004;5.908;2022-11-15T05:46:10;12.10;90.10
42037;DHT22;30340;52.004;5.908;2022-11-15T05:48:38;12.10;90.00
42037;DHT22;30340;52.004;5.908;2022-11-15T05:51:06;12.10;90.00
42037;DHT22;30340;52.004;5.908;2022-11-15T05:53:33;12.10;90.00
42037;DHT22;30340;52.004;5.908;2022-11-15T05:56:00;12.10;90.00
42037;DHT22;30340;52.004;5.908;2022-11-15T05:58:25;12.10;90.00
42037;DHT22;30340;52.004;5.908;2022-11-15T06:00:51;12.10;90.00
42037;DHT22;30340;52.004;5.908;2022-11-15T06:03:16;12.10;90.00
42037;DHT22;30340;52.004;5.908;2022-11-15T06:05:42;12.10;90.00
42037;DHT22;30340;52.004;5.908;2022-11-15T06:08:07;12.10;90.00
42037;DHT22;30340;52.004;5.908;2022-11-15T06:10:33;12.10;90.00
42037;DHT22;30340;52.004;5.908;2022-11-15T06:13:03;12.10;90.00
42037;DHT22;30340;52.004;5.908;2022-11-15T06:15:29;12.10;90.10
42037;DHT22;30340;52.004;5.908;2022-11-15T06:17:58;12.10;90.10
42037;DHT22;30340;52.004;5.908;2022-11-15T06:20:28;12.10;90.10
42037;DHT22;30340;52.004;5.908;2022-11-15T06:23:02;12.10;90.20
42037;DHT22;30340;52.004;5.908;2022-11-15T06:25:28;12.10;90.20
42037;DHT22;30340;52.004;5.908;2022-11-15T06:27:55;12.10;90.10
42037;DHT22;30340;52.004;5.908;2022-11-15T06:30:22;12.10;90.10
42037;DHT22;30340;52.004;5.908;2022-11-15T06:32:47;12.10;90.00
42037;DHT22;30340;52.004;5.908;2022-11-15T06:35:14;12.10;90.00
42037;DHT22;30340;52.004;5.908;2022-11-15T06:37:40;12.10;90.00
42037;DHT22;30340;52.004;5.908;2022-11-15T06:40:07;12.10;90.00
42037;DHT22;30340;52.004;5.908;2022-11-15T06:42:33;12.10;90.10
42037;DHT22;30340;52.004;5.908;2022-11-15T06:44:59;12.10;90.10
42037;DHT22;30340;52.004;5.908;2022-11-15T06:47:25;12.10;90.10
42037;DHT22;30340;52.004;5.908;2022-11-15T06:49:50;12.10;90.10
42037;DHT22;30340;52.004;5.908;2022-11-15T06:52:16;12.00;90.10
42037;DHT22;30340;52.004;5.908;2022-11-15T06:54:44;12.10;90.50
42037;DHT22;30340;52.004;5.908;2022-11-15T06:57:09;12.00;90.20
42037;DHT22;30340;52.004;5.908;2022-11-15T06:59:35;12.10;90.30
42037;DHT22;30340;52.004;5.908;2022-11-15T07:02:01;12.10;90.20
42037;DHT22;30340;52.004;5.908;2022-11-15T07:04:27;12.10;90.20
42037;DHT22;30340;52.004;5.908;2022-11-15T07:06:52;12.10;90.30
42037;DHT22;30340;52.004;5.908;2022-11-15T07:09:18;12.10;90.30
42037;DHT22;30340;52.004;5.908;2022-11-15T07:11:43;12.10;90.30
42037;DHT22;30340;52.004;5.908;2022-11-15T07:14:09;12.10;90.40
42037;DHT22;30340;52.004;5.908;2022-11-15T07:16:36;12.10;90.40
42037;DHT22;30340;52.004;5.908;2022-11-15T07:19:01;12.10;90.40
42037;DHT22;30340;52.004;5.908;2022-11-15T07:21:27;12.10;90.40
42037;DHT22;30340;52.004;5.908;2022-11-15T07:23:52;12.20;90.40
42037;DHT22;30340;52.004;5.908;2022-11-15T07:26:18;12.20;90.30
42037;DHT22;30340;52.004;5.908;2022-11-15T07:28:43;12.20;90.30
42037;DHT22;30340;52.004;5.908;2022-11-15T07:31:09;12.30;90.30
42037;DHT22;30340;52.004;5.908;2022-11-15T07:33:35;12.20;90.20
42037;DHT22;30340;52.004;5.908;2022-11-15T07:36:02;12.30;90.50
42037;DHT22;30340;52.004;5.908;2022-11-15T07:38:28;12.20;90.20
42037;DHT22;30340;52.004;5.908;2022-11-15T07:40:59;12.20;90.30
42037;DHT22;30340;52.004;5.908;2022-11-15T07:43:25;12.20;90.30
42037;DHT22;30340;52.004;5.908;2022-11-15T07:45:51;12.20;90.40
42037;DHT22;30340;52.004;5.908;2022-11-15T07:48:16;12.20;90.60
42037;DHT22;30340;52.004;5.908;2022-11-15T07:50:42;12.20;90.70
42037;DHT22;30340;52.004;5.908;2022-11-15T07:53:09;12.20;90.70
42037;DHT22;30340;52.004;5.908;2022-11-15T07:55:34;12.20;90.70
42037;DHT22;30340;52.004;5.908;2022-11-15T07:58:01;12.30;90.70
42037;DHT22;30340;52.004;5.908;2022-11-15T08:00:27;12.20;90.70
42037;DHT22;30340;52.004;5.908;2022-11-15T08:02:53;12.30;90.80
42037;DHT22;30340;52.004;5.908;2022-11-15T08:05:26;12.30;90.80
42037;DHT22;30340;52.004;5.908;2022-11-15T08:07:51;12.30;90.70
42037;DHT22;30340;52.004;5.908;2022-11-15T08:10:17;12.40;90.70
42037;DHT22;30340;52.004;5.908;2022-11-15T08:12:44;12.40;90.70
42037;DHT22;30340;52.004;5.908;2022-11-15T08:15:09;12.40;90.60
42037;DHT22;30340;52.004;5.908;2022-11-15T08:17:35;12.40;90.60
42037;DHT22;30340;52.004;5.908;2022-11-15T08:20:01;12.40;90.60
42037;DHT22;30340;52.004;5.908;2022-11-15T08:22:26;12.50;90.60
42037;DHT22;30340;52.004;5.908;2022-11-15T08:24:52;12.50;90.50
42037;DHT22;30340;52.004;5.908;2022-11-15T08:27:17;12.50;90.50
42037;DHT22;30340;52.004;5.908;2022-11-15T08:29:44;12.60;90.50
42037;DHT22;30340;52.004;5.908;2022-11-15T08:32:10;12.60;90.50
42037;DHT22;30340;52.004;5.908;2022-11-15T08:34:37;12.60;90.50
42037;DHT22;30340;52.004;5.908;2022-11-15T08:37:03;12.60;90.50
42037;DHT22;30340;52.004;5.908;2022-11-15T08:39:29;12.70;90.50
42037;DHT22;30340;52.004;5.908;2022-11-15T08:41:54;12.70;90.40
42037;DHT22;30340;52.004;5.908;2022-11-15T08:44:20;12.70;90.30
42037;DHT22;30340;52.004;5.908;2022-11-15T08:46:46;12.80;90.30
42037;DHT22;30340;52.004;5.908;2022-11-15T08:49:12;12.80;90.30
42037;DHT22;30340;52.004;5.908;2022-11-15T08:51:37;12.80;90.30
42037;DHT22;30340;52.004;5.908;2022-11-15T08:54:03;12.80;90.20
42037;DHT22;30340;52.004;5.908;2022-11-15T08:56:28;12.80;90.30
42037;DHT22;30340;52.004;5.908;2022-11-15T08:58:54;12.80;90.30
42037;DHT22;30340;52.004;5.908;2022-11-15T09:01:20;12.80;90.40
42037;DHT22;30340;52.004;5.908;2022-11-15T09:03:46;12.70;90.40
42037;DHT22;30340;52.004;5.908;2022-11-15T09:06:12;12.80;90.40
42037;DHT22;30340;52.004;5.908;2022-11-15T09:08:37;12.80;90.40
42037;DHT22;30340;52.004;5.908;2022-11-15T09:11:07;12.80;90.30
42037;DHT22;30340;52.004;5.908;2022-11-15T09:13:33;12.80;90.30
42037;DHT22;30340;52.004;5.908;2022-11-15T09:15:59;12.90;90.30
42037;DHT22;30340;52.004;5.908;2022-11-15T09:18:25;12.90;90.30
42037;DHT22;30340;52.004;5.908;2022-11-15T09:20:55;12.80;90.20
42037;DHT22;30340;52.004;5.908;2022-11-15T09:23:21;12.80;90.20
42037;DHT22;30340;52.004;5.908;2022-11-15T09:25:47;12.80;90.30
42037;DHT22;30340;52.004;5.908;2022-11-15T09:28:13;12.80;90.50
42037;DHT22;30340;52.004;5.908;2022-11-15T09:30:38;12.80;90.20
42037;DHT22;30340;52.004;5.908;2022-11-15T09:33:08;12.90;90.50
42037;DHT22;30340;52.004;5.908;2022-11-15T09:35:34;12.90;90.20
42037;DHT22;30340;52.004;5.908;2022-11-15T09:38:00;12.90;90.10
42037;DHT22;30340;52.004;5.908;2022-11-15T09:40:26;12.90;90.10
42037;DHT22;30340;52.004;5.908;2022-11-15T09:43:02;12.80;90.00
42037;DHT22;30340;52.004;5.908;2022-11-15T09:46:03;12.80;90.10
42037;DHT22;30340;52.004;5.908;2022-11-15T09:48:49;12.80;90.10
42037;DHT22;30340;52.004;5.908;2022-11-15T09:51:43;12.80;90.10
42037;DHT22;30340;52.004;5.908;2022-11-15T09:54:37;12.80;90.10
42037;DHT22;30340;52.004;5.908;2022-11-15T09:57:09;12.90;90.00
42037;DHT22;30340;52.004;5.908;2022-11-15T09:59:53;12.90;90.00
42037;DHT22;30340;52.004;5.908;2022-11-15T10:02:52;13.00;90.00
42037;DHT22;30340;52.004;5.908;2022-11-15T10:05:21;13.00;89.80
42037;DHT22;30340;52.004;5.908;2022-11-15T10:10:46;13.10;89.40
42037;DHT22;30340;52.004;5.908;2022-11-15T10:13:19;13.10;89.10
42037;DHT22;30340;52.004;5.908;2022-11-15T10:15:46;13.10;88.80
42037;DHT22;30340;52.004;5.908;2022-11-15T10:21:02;13.10;88.60
42037;DHT22;30340;52.004;5.908;2022-11-15T10:23:33;13.10;89.00
42037;DHT22;30340;52.004;5.908;2022-11-15T10:26:00;13.10;88.20
42037;DHT22;30340;52.004;5.908;2022-11-15T10:28:28;13.10;88.10
42037;DHT22;30340;52.004;5.908;2022-11-15T10:30:56;13.00;87.70
42037;DHT22;30340;52.004;5.908;2022-11-15T10:33:59;13.00;87.60
42037;DHT22;30340;52.004;5.908;2022-11-15T10:36:35;12.90;87.20
42037;DHT22;30340;52.004;5.908;2022-11-15T10:39:03;13.00;87.40
42037;DHT22;30340;52.004;5.908;2022-11-15T10:46:43;13.10;87.10
42037;DHT22;30340;52.004;5.908;2022-11-15T10:49:23;13.10;87.00
42037;DHT22;30340;52.004;5.908;2022-11-15T10:52:14;13.30;86.90
42037;DHT22;30340;52.004;5.908;2022-11-15T10:54:44;13.40;86.10
42037;DHT22;30340;52.004;5.908;2022-11-15T10:57:20;13.40;85.50
42037;DHT22;30340;52.004;5.908;2022-11-15T10:59:49;13.40;85.20
42037;DHT22;30340;52.004;5.908;2022-11-15T11:05:01;13.40;84.30
42037;DHT22;30340;52.004;5.908;2022-11-15T11:07:33;13.40;84.00
42037;DHT22;30340;52.004;5.908;2022-11-15T11:10:19;13.30;83.40
42037;DHT22;30340;52.004;5.908;2022-11-15T11:12:45;13.40;83.30
42037;DHT22;30340;52.004;5.908;2022-11-15T11:15:12;13.30;82.90
42037;DHT22;30340;52.004;5.908;2022-11-15T11:18:12;13.30;81.80
42037;DHT22;30340;52.004;5.908;2022-11-15T11:20:46;13.30;81.20
42037;DHT22;30340;52.004;5.908;2022-11-15T11:32:16;13.30;78.90
42037;DHT22;30340;52.004;5.908;2022-11-15T11:40:20;13.50;77.50
42037;DHT22;30340;52.004;5.908;2022-11-15T11:42:53;13.60;77.50
42037;DHT22;30340;52.004;5.908;2022-11-15T11:50:28;14.50;73.50
42037;DHT22;30340;52.004;5.908;2022-11-15T11:55:38;16.30;66.30
42037;DHT22;30340;52.004;5.908;2022-11-15T11:58:12;16.80;64.60
42037;DHT22;30340;52.004;5.908;2022-11-15T12:00:43;16.60;63.50
42037;DHT22;30340;52.004;5.908;2022-11-15T12:06:35;15.20;65.90
42037;DHT22;30340;52.004;5.908;2022-11-15T12:09:15;14.80;67.90
42037;DHT22;30340;52.004;5.908;2022-11-15T12:14:51;15.20;68.80
42037;DHT22;30340;52.004;5.908;2022-11-15T12:17:19;15.60;66.90
42037;DHT22;30340;52.004;5.908;2022-11-15T12:19:46;16.10;65.50
42037;DHT22;30340;52.004;5.908;2022-11-15T12:22:49;16.10;63.50
42037;DHT22;30340;52.004;5.908;2022-11-15T12:28:38;16.00;63.60
42037;DHT22;30340;52.004;5.908;2022-11-15T12:31:13;15.80;63.70
42037;DHT22;30340;52.004;5.908;2022-11-15T12:33:44;15.80;63.30
42037;DHT22;30340;52.004;5.908;2022-11-15T12:38:59;15.80;64.30
42037;DHT22;30340;52.004;5.908;2022-11-15T12:41:34;15.70;63.60
42037;DHT22;30340;52.004;5.908;2022-11-15T12:44:00;15.60;63.40
42037;DHT22;30340;52.004;5.908;2022-11-15T12:59:58;15.60;63.00
42037;DHT22;30340;52.004;5.908;2022-11-15T13:02:41;15.40;62.20
42037;DHT22;30340;52.004;5.908;2022-11-15T13:17:53;15.10;62.90
42037;DHT22;30340;52.004;5.908;2022-11-15T13:20:29;14.90;63.30
42037;DHT22;30340;52.004;5.908;2022-11-15T13:28:03;14.70;64.50
42037;DHT22;30340;52.004;5.908;2022-11-15T13:30:36;14.50;64.10
42037;DHT22;30340;52.004;5.908;2022-11-15T13:33:15;14.40;64.10
42037;DHT22;30340;52.004;5.908;2022-11-15T13:35:42;14.30;64.40
42037;DHT22;30340;52.004;5.908;2022-11-15T13:38:19;14.30;64.80
42037;DHT22;30340;52.004;5.908;2022-11-15T13:40:50;14.10;64.50
42037;DHT22;30340;52.004;5.908;2022-11-15T13:43:34;14.10;64.90
42037;DHT22;30340;52.004;5.908;2022-11-15T13:46:18;14.10;65.00
42037;DHT22;30340;52.004;5.908;2022-11-15T13:48:48;14.00;65.20
42037;DHT22;30340;52.004;5.908;2022-11-15T13:53:57;14.00;65.80
42037;DHT22;30340;52.004;5.908;2022-11-15T13:56:25;13.90;65.80
42037;DHT22;30340;52.004;5.908;2022-11-15T13:58:52;13.90;66.00
42037;DHT22;30340;52.004;5.908;2022-11-15T14:01:21;13.90;66.00
42037;DHT22;30340;52.004;5.908;2022-11-15T14:03:50;13.90;66.30
42037;DHT22;30340;52.004;5.908;2022-11-15T14:06:19;13.80;66.30
42037;DHT22;30340;52.004;5.908;2022-11-15T14:09:02;13.80;66.60
42037;DHT22;30340;52.004;5.908;2022-11-15T14:11:28;13.70;66.70
42037;DHT22;30340;52.004;5.908;2022-11-15T14:16:36;13.60;67.30
42037;DHT22;30340;52.004;5.908;2022-11-15T14:19:02;13.60;67.50
42037;DHT22;30340;52.004;5.908;2022-11-15T14:21:28;13.60;67.50
42037;DHT22;30340;52.004;5.908;2022-11-15T14:24:20;13.60;67.70
42037;DHT22;30340;52.004;5.908;2022-11-15T14:26:47;13.60;67.70
42037;DHT22;30340;52.004;5.908;2022-11-15T14:29:27;13.50;67.30
42037;DHT22;30340;52.004;5.908;2022-11-15T14:32:05;13.50;67.60
42037;DHT22;30340;52.004;5.908;2022-11-15T14:34:34;13.40;67.40
42037;DHT22;30340;52.004;5.908;2022-11-15T14:37:00;13.40;67.70
42037;DHT22;30340;52.004;5.908;2022-11-15T14:39:25;13.30;67.70
42037;DHT22;30340;52.004;5.908;2022-11-15T14:41:51;13.40;68.00
42037;DHT22;30340;52.004;5.908;2022-11-15T14:44:16;13.40;68.20
42037;DHT22;30340;52.004;5.908;2022-11-15T14:46:43;13.40;68.00
42037;DHT22;30340;52.004;5.908;2022-11-15T14:49:09;13.40;68.20
42037;DHT22;30340;52.004;5.908;2022-11-15T14:51:35;13.40;68.20
42037;DHT22;30340;52.004;5.908;2022-11-15T14:54:01;13.30;68.10
42037;DHT22;30340;52.004;5.908;2022-11-15T14:56:26;13.30;68.30
42037;DHT22;30340;52.004;5.908;2022-11-15T14:58:52;13.30;68.10
42037;DHT22;30340;52.004;5.908;2022-11-15T15:01:22;13.30;68.40
42037;DHT22;30340;52.004;5.908;2022-11-15T15:03:48;13.30;68.50
42037;DHT22;30340;52.004;5.908;2022-11-15T15:06:14;13.30;68.40
42037;DHT22;30340;52.004;5.908;2022-11-15T15:08:40;13.30;68.20
42037;DHT22;30340;52.004;5.908;2022-11-15T15:11:24;13.20;68.00
42037;DHT22;30340;52.004;5.908;2022-11-15T15:13:50;13.30;67.90
42037;DHT22;30340;52.004;5.908;2022-11-15T15:16:16;13.20;67.80
42037;DHT22;30340;52.004;5.908;2022-11-15T15:18:41;13.20;67.50
42037;DHT22;30340;52.004;5.908;2022-11-15T15:21:20;13.20;67.60
42037;DHT22;30340;52.004;5.908;2022-11-15T15:23:47;13.20;67.20
42037;DHT22;30340;52.004;5.908;2022-11-15T15:26:13;13.20;67.40
42037;DHT22;30340;52.004;5.908;2022-11-15T15:28:38;13.20;67.30
42037;DHT22;30340;52.004;5.908;2022-11-15T15:31:05;13.20;67.50
42037;DHT22;30340;52.004;5.908;2022-11-15T15:33:31;13.20;67.20
42037;DHT22;30340;52.004;5.908;2022-11-15T15:35:57;13.20;67.40
42037;DHT22;30340;52.004;5.908;2022-11-15T15:38:23;13.20;67.50
42037;DHT22;30340;52.004;5.908;2022-11-15T15:40:49;13.20;67.30
42037;DHT22;30340;52.004;5.908;2022-11-15T15:43:14;13.20;67.30
42037;DHT22;30340;52.004;5.908;2022-11-15T15:45:41;13.20;67.30
42037;DHT22;30340;52.004;5.908;2022-11-15T15:48:15;13.20;67.10
42037;DHT22;30340;52.004;5.908;2022-11-15T15:50:41;13.20;67.20
42037;DHT22;30340;52.004;5.908;2022-11-15T15:53:12;13.20;67.20
42037;DHT22;30340;52.004;5.908;2022-11-15T15:55:37;13.20;67.30
42037;DHT22;30340;52.004;5.908;2022-11-15T15:58:04;13.30;67.40
42037;DHT22;30340;52.004;5.908;2022-11-15T16:00:30;13.20;67.40
42037;DHT22;30340;52.004;5.908;2022-11-15T16:02:58;13.30;67.70
42037;DHT22;30340;52.004;5.908;2022-11-15T16:05:23;13.20;67.80
42037;DHT22;30340;52.004;5.908;2022-11-15T16:07:49;13.20;67.90
42037;DHT22;30340;52.004;5.908;2022-11-15T16:10:32;13.30;68.10
42037;DHT22;30340;52.004;5.908;2022-11-15T16:12:59;13.30;68.30
42037;DHT22;30340;52.004;5.908;2022-11-15T16:15:30;13.30;68.40
42037;DHT22;30340;52.004;5.908;2022-11-15T16:17:58;13.30;68.60
42037;DHT22;30340;52.004;5.908;2022-11-15T16:20:37;13.30;68.70
42037;DHT22;30340;52.004;5.908;2022-11-15T16:23:05;13.30;68.90
42037;DHT22;30340;52.004;5.908;2022-11-15T16:25:48;13.30;69.00
42037;DHT22;30340;52.004;5.908;2022-11-15T16:28:28;13.30;69.10
42037;DHT22;30340;52.004;5.908;2022-11-15T16:31:04;13.30;69.40
42037;DHT22;30340;52.004;5.908;2022-11-15T16:33:30;13.30;69.50
42037;DHT22;30340;52.004;5.908;2022-11-15T16:35:56;13.30;69.60
42037;DHT22;30340;52.004;5.908;2022-11-15T16:38:22;13.40;69.70
42037;DHT22;30340;52.004;5.908;2022-11-15T16:40:48;13.40;69.80
42037;DHT22;30340;52.004;5.908;2022-11-15T16:43:13;13.40;69.90
42037;DHT22;30340;52.004;5.908;2022-11-15T16:45:39;13.40;70.00
42037;DHT22;30340;52.004;5.908;2022-11-15T16:48:05;13.40;70.20
42037;DHT22;30340;52.004;5.908;2022-11-15T16:50:33;13.40;70.40
42037;DHT22;30340;52.004;5.908;2022-11-15T16:53:05;13.40;70.40
42037;DHT22;30340;52.004;5.908;2022-11-15T16:55:31;13.40;70.50
42037;DHT22;30340;52.004;5.908;2022-11-15T16:57:56;13.40;70.50
42037;DHT22;30340;52.004;5.908;2022-11-15T17:00:23;13.40;70.50
42037;DHT22;30340;52.004;5.908;2022-11-15T17:02:49;13.40;70.60
42037;DHT22;30340;52.004;5.908;2022-11-15T17:05:17;13.40;70.70
42037;DHT22;30340;52.004;5.908;2022-11-15T17:07:45;13.50;70.60
42037;DHT22;30340;52.004;5.908;2022-11-15T17:10:11;13.40;70.70
42037;DHT22;30340;52.004;5.908;2022-11-15T17:12:37;13.40;70.80
42037;DHT22;30340;52.004;5.908;2022-11-15T17:15:03;13.50;70.80
42037;DHT22;30340;52.004;5.908;2022-11-15T17:17:30;13.50;70.90
42037;DHT22;30340;52.004;5.908;2022-11-15T17:19:56;13.50;71.00
42037;DHT22;30340;52.004;5.908;2022-11-15T17:22:22;13.50;71.00
42037;DHT22;30340;52.004;5.908;2022-11-15T17:24:47;13.50;71.00
42037;DHT22;30340;52.004;5.908;2022-11-15T17:27:13;13.50;71.20
42037;DHT22;30340;52.004;5.908;2022-11-15T17:29:40;13.50;71.30
42037;DHT22;30340;52.004;5.908;2022-11-15T17:32:06;13.60;71.30
42037;DHT22;30340;52.004;5.908;2022-11-15T17:34:31;13.60;71.30